sensor_id;sensor_type;location;lat;lon;timestamp;temperature;humidity
39601;DHT22;25297;44.758;11.310;2024-03-23T00:55:37;15.10;85.70
39601;DHT22;25297;44.758;11.310;2024-03-23T00:58:03;15.10;85.10
39601;DHT22;25297;44.758;11.310;2024-03-23T01:00:28;15.10;84.80
39601;DHT22;25297;44.758;11.310;2024-03-23T01:02:54;15.10;85.10
39601;DHT22;25297;44.758;11.310;2024-03-23T01:05:19;15.00;85.60
39601;DHT22;25297;44.758;11.310;2024-03-23T01:07:45;15.00;85.80
39601;DHT22;25297;44.758;11.310;2024-03-23T01:10:11;15.00;85.90
39601;DHT22;25297;44.758;11.310;2024-03-23T01:12:36;15.00;85.90
39601;DHT22;25297;44.758;11.310;2024-03-23T01:15:02;15.00;85.80
39601;DHT22;25297;44.758;11.310;2024-03-23T01:17:28;14.90;85.60
39601;DHT22;25297;44.758;11.310;2024-03-23T01:19:54;14.90;85.70
39601;DHT22;25297;44.758;11.310;2024-03-23T01:22:19;14.90;85.80
39601;DHT22;25297;44.758;11.310;2024-03-23T01:24:45;14.90;85.90
39601;DHT22;25297;44.758;11.310;2024-03-23T01:27:11;14.90;85.90
39601;DHT22;25297;44.758;11.310;2024-03-23T01:29:36;14.90;86.00
39601;DHT22;25297;44.758;11.310;2024-03-23T01:32:02;14.80;85.60
39601;DHT22;25297;44.758;11.310;2024-03-23T01:34:28;14.80;85.60
39601;DHT22;25297;44.758;11.310;2024-03-23T01:36:53;14.80;85.40
39601;DHT22;25297;44.758;11.310;2024-03-23T01:39:19;14.80;84.30
39601;DHT22;25297;44.758;11.310;2024-03-23T01:41:45;14.70;84.70
39601;DHT22;25297;44.758;11.310;2024-03-23T01:44:10;14.70;84.80
39601;DHT22;25297;44.758;11.310;2024-03-23T01:46:37;14.70;85.10
39601;DHT22;25297;44.758;11.310;2024-03-23T01:49:06;14.60;85.40
39601;DHT22;25297;44.758;11.310;2024-03-23T01:51:32;14.70;85.40
39601;DHT22;25297;44.758;11.310;2024-03-23T01:53:59;14.60;85.40
39601;DHT22;25297;44.758;11.310;2024-03-23T01:56:37;14.70;85.50
39601;DHT22;25297;44.758;11.310;2024-03-23T01:59:04;14.60;84.50
39601;DHT22;25297;44.758;11.310;2024-03-23T02:01:31;14.60;85.20
39601;DHT22;25297;44.758;11.310;2024-03-23T02:03:57;14.50;85.50
39601;DHT22;25297;44.758;11.310;2024-03-23T02:06:24;14.50;85.90
39601;DHT22;25297;44.758;11.310;2024-03-23T02:08:49;14.40;85.10
39601;DHT22;25297;44.758;11.310;2024-03-23T02:11:15;14.50;85.70
39601;DHT22;25297;44.758;11.310;2024-03-23T02:13:41;14.40;85.50
39601;DHT22;25297;44.758;11.310;2024-03-23T02:16:06;14.40;85.20
39601;DHT22;25297;44.758;11.310;2024-03-23T02:18:35;14.30;84.30
39601;DHT22;25297;44.758;11.310;2024-03-23T02:21:01;14.30;84.70
39601;DHT22;25297;44.758;11.310;2024-03-23T02:23:26;14.30;85.10
39601;DHT22;25297;44.758;11.310;2024-03-23T02:25:52;14.30;85.10
39601;DHT22;25297;44.758;11.310;2024-03-23T02:28:21;14.30;85.00
39601;DHT22;25297;44.758;11.310;2024-03-23T02:30:50;14.30;85.10
39601;DHT22;25297;44.758;11.310;2024-03-23T02:33:16;14.20;84.80
39601;DHT22;25297;44.758;11.310;2024-03-23T02:35:43;14.20;84.80
39601;DHT22;25297;44.758;11.310;2024-03-23T02:38:09;14.20;85.20
39601;DHT22;25297;44.758;11.310;2024-03-23T02:40:34;14.20;85.00
39601;DHT22;25297;44.758;11.310;2024-03-23T02:43:02;14.10;85.50
39601;DHT22;25297;44.758;11.310;2024-03-23T02:45:28;14.20;85.90
39601;DHT22;25297;44.758;11.310;2024-03-23T02:47:53;14.10;85.50
39601;DHT22;25297;44.758;11.310;2024-03-23T02:50:19;14.10;85.30
39601;DHT22;25297;44.758;11.310;2024-03-23T02:52:45;14.00;85.50
39601;DHT22;25297;44.758;11.310;2024-03-23T02:55:11;13.90;86.00
39601;DHT22;25297;44.758;11.310;2024-03-23T02:57:37;14.00;86.10
39601;DHT22;25297;44.758;11.310;2024-03-23T03:00:03;13.90;86.30
39601;DHT22;25297;44.758;11.310;2024-03-23T03:02:29;13.90;85.70
39601;DHT22;25297;44.758;11.310;2024-03-23T03:04:54;13.90;85.70
39601;DHT22;25297;44.758;11.310;2024-03-23T03:07:20;13.90;85.90
39601;DHT22;25297;44.758;11.310;2024-03-23T03:09:46;13.90;85.60
39601;DHT22;25297;44.758;11.310;2024-03-23T03:12:11;13.90;85.50
39601;DHT22;25297;44.758;11.310;2024-03-23T03:14:37;13.90;85.60
39601;DHT22;25297;44.758;11.310;2024-03-23T03:17:03;13.80;85.90
39601;DHT22;25297;44.758;11.310;2024-03-23T03:19:29;13.90;86.10
39601;DHT22;25297;44.758;11.310;2024-03-23T03:21:55;13.80;86.30
39601;DHT22;25297;44.758;11.310;2024-03-23T03:24:21;13.80;86.40
39601;DHT22;25297;44.758;11.310;2024-03-23T03:26:46;13.80;86.50
39601;DHT22;25297;44.758;11.310;2024-03-23T03:29:12;13.80;86.60
39601;DHT22;25297;44.758;11.310;2024-03-23T03:31:39;13.80;86.40
39601;DHT22;25297;44.758;11.310;2024-03-23T03:34:04;13.80;86.40
39601;DHT22;25297;44.758;11.310;2024-03-23T03:36:30;13.80;86.40
39601;DHT22;25297;44.758;11.310;2024-03-23T03:38:56;13.70;86.20
39601;DHT22;25297;44.758;11.310;2024-03-23T03:41:21;13.70;86.00
39601;DHT22;25297;44.758;11.310;2024-03-23T03:43:47;13.70;86.10
39601;DHT22;25297;44.758;11.310;2024-03-23T03:46:12;13.70;85.60
39601;DHT22;25297;44.758;11.310;2024-03-23T03:48:38;13.70;85.60
39601;DHT22;25297;44.758;11.310;2024-03-23T03:51:04;13.80;85.80
39601;DHT22;25297;44.758;11.310;2024-03-23T03:53:30;13.70;85.70
39601;DHT22;25297;44.758;11.310;2024-03-23T03:55:56;13.70;85.60
39601;DHT22;25297;44.758;11.310;2024-03-23T03:58:22;13.70;84.90
39601;DHT22;25297;44.758;11.310;2024-03-23T04:00:47;13.70;85.30
39601;DHT22;25297;44.758;11.310;2024-03-23T04:03:13;13.70;85.50
39601;DHT22;25297;44.758;11.310;2024-03-23T04:05:39;13.80;85.70
39601;DHT22;25297;44.758;11.310;2024-03-23T04:08:07;13.80;85.50
39601;DHT22;25297;44.758;11.310;2024-03-23T04:10:32;13.70;85.40
39601;DHT22;25297;44.758;11.310;2024-03-23T04:12:58;13.70;85.30
39601;DHT22;25297;44.758;11.310;2024-03-23T04:15:23;13.70;85.90
39601;DHT22;25297;44.758;11.310;2024-03-23T04:17:49;13.70;85.30
39601;DHT22;25297;44.758;11.310;2024-03-23T04:20:15;13.70;85.40
39601;DHT22;25297;44.758;11.310;2024-03-23T04:22:42;13.70;85.40
39601;DHT22;25297;44.758;11.310;2024-03-23T04:25:08;13.70;85.50
39601;DHT22;25297;44.758;11.310;2024-03-23T04:27:36;13.70;85.50
39601;DHT22;25297;44.758;11.310;2024-03-23T04:30:03;13.70;85.30
39601;DHT22;25297;44.758;11.310;2024-03-23T04:32:31;13.80;85.20
39601;DHT22;25297;44.758;11.310;2024-03-23T04:34:57;13.70;85.20
39601;DHT22;25297;44.758;11.310;2024-03-23T04:37:22;13.70;85.20
39601;DHT22;25297;44.758;11.310;2024-03-23T04:39:48;13.80;85.20
39601;DHT22;25297;44.758;11.310;2024-03-23T04:42:17;13.80;85.10
39601;DHT22;25297;44.758;11.310;2024-03-23T04:44:43;13.80;85.00
39601;DHT22;25297;44.758;11.310;2024-03-23T04:47:08;13.80;85.00
39601;DHT22;25297;44.758;11.310;2024-03-23T04:49:34;13.80;84.60
39601;DHT22;25297;44.758;11.310;2024-03-23T04:52:05;13.80;84.90
39601;DHT22;25297;44.758;11.310;2024-03-23T04:54:31;13.80;84.60
39601;DHT22;25297;44.758;11.310;2024-03-23T04:56:58;13.80;84.90
39601;DHT22;25297;44.758;11.310;2024-03-23T04:59:23;13.80;84.60
39601;DHT22;25297;44.758;11.310;2024-03-23T05:01:49;13.80;85.20
39601;DHT22;25297;44.758;11.310;2024-03-23T05:04:15;13.80;85.10
39601;DHT22;25297;44.758;11.310;2024-03-23T05:06:40;13.80;84.80
39601;DHT22;25297;44.758;11.310;2024-03-23T05:09:06;13.90;84.90
39601;DHT22;25297;44.758;11.310;2024-03-23T05:11:35;13.90;84.90
39601;DHT22;25297;44.758;11.310;2024-03-23T05:14:01;13.90;84.70
39601;DHT22;25297;44.758;11.310;2024-03-23T05:16:28;13.90;84.60
39601;DHT22;25297;44.758;11.310;2024-03-23T05:18:54;13.90;84.50
39601;DHT22;25297;44.758;11.310;2024-03-23T05:21:19;14.00;84.50
39601;DHT22;25297;44.758;11.310;2024-03-23T05:23:45;14.00;84.10
39601;DHT22;25297;44.758;11.310;2024-03-23T05:26:10;14.00;83.90
39601;DHT22;25297;44.758;11.310;2024-03-23T05:28:36;14.00;84.10
39601;DHT22;25297;44.758;11.310;2024-03-23T05:31:02;13.90;84.20
39601;DHT22;25297;44.758;11.310;2024-03-23T05:33:27;13.90;84.30
39601;DHT22;25297;44.758;11.310;2024-03-23T05:36:01;13.80;84.50
39601;DHT22;25297;44.758;11.310;2024-03-23T05:38:27;13.80;84.30
39601;DHT22;25297;44.758;11.310;2024-03-23T05:40:58;13.80;84.40
39601;DHT22;25297;44.758;11.310;2024-03-23T05:43:24;13.80;84.60
39601;DHT22;25297;44.758;11.310;2024-03-23T05:45:56;13.80;84.70
39601;DHT22;25297;44.758;11.310;2024-03-23T05:48:22;13.90;84.60
39601;DHT22;25297;44.758;11.310;2024-03-23T05:50:49;14.00;84.60
39601;DHT22;25297;44.758;11.310;2024-03-23T05:53:18;14.00;84.50
39601;DHT22;25297;44.758;11.310;2024-03-23T05:55:47;14.00;84.50
39601;DHT22;25297;44.758;11.310;2024-03-23T05:58:17;14.10;84.20
39601;DHT22;25297;44.758;11.310;2024-03-23T06:00:43;14.10;84.10
39601;DHT22;25297;44.758;11.310;2024-03-23T06:03:09;14.10;84.10
39601;DHT22;25297;44.758;11.310;2024-03-23T06:05:36;14.20;84.00
39601;DHT22;25297;44.758;11.310;2024-03-23T06:08:02;14.20;84.10
39601;DHT22;25297;44.758;11.310;2024-03-23T06:10:28;14.20;84.30
39601;DHT22;25297;44.758;11.310;2024-03-23T06:12:53;14.20;84.40
39601;DHT22;25297;44.758;11.310;2024-03-23T06:15:19;14.20;84.30
39601;DHT22;25297;44.758;11.310;2024-03-23T06:17:45;14.20;84.50
39601;DHT22;25297;44.758;11.310;2024-03-23T06:20:11;14.20;84.60
39601;DHT22;25297;44.758;11.310;2024-03-23T06:22:38;14.30;85.00
39601;DHT22;25297;44.758;11.310;2024-03-23T06:25:04;14.40;85.20
39601;DHT22;25297;44.758;11.310;2024-03-23T06:27:29;14.40;85.20
39601;DHT22;25297;44.758;11.310;2024-03-23T06:29:55;14.40;85.40
39601;DHT22;25297;44.758;11.310;2024-03-23T06:32:22;14.50;85.50
39601;DHT22;25297;44.758;11.310;2024-03-23T06:34:47;14.60;85.70
39601;DHT22;25297;44.758;11.310;2024-03-23T06:37:13;14.60;85.90
39601;DHT22;25297;44.758;11.310;2024-03-23T06:39:39;14.70;86.10
39601;DHT22;25297;44.758;11.310;2024-03-23T06:42:05;14.80;86.20
39601;DHT22;25297;44.758;11.310;2024-03-23T06:44:30;14.80;87.20
39601;DHT22;25297;44.758;11.310;2024-03-23T06:46:57;14.90;86.90
39601;DHT22;25297;44.758;11.310;2024-03-23T06:49:23;15.00;86.80
39601;DHT22;25297;44.758;11.310;2024-03-23T06:51:49;15.10;87.10
39601;DHT22;25297;44.758;11.310;2024-03-23T06:54:16;15.20;87.50
39601;DHT22;25297;44.758;11.310;2024-03-23T06:56:42;15.30;88.60
39601;DHT22;25297;44.758;11.310;2024-03-23T06:59:07;15.30;88.10
39601;DHT22;25297;44.758;11.310;2024-03-23T07:01:33;15.40;88.30
39601;DHT22;25297;44.758;11.310;2024-03-23T07:03:58;15.50;88.50
39601;DHT22;25297;44.758;11.310;2024-03-23T07:06:24;15.60;87.50
39601;DHT22;25297;44.758;11.310;2024-03-23T07:08:50;15.70;87.20
39601;DHT22;25297;44.758;11.310;2024-03-23T07:11:23;15.80;87.20
39601;DHT22;25297;44.758;11.310;2024-03-23T07:13:50;15.90;87.30
39601;DHT22;25297;44.758;11.310;2024-03-23T07:16:16;16.00;86.90
39601;DHT22;25297;44.758;11.310;2024-03-23T07:18:42;16.10;87.00
39601;DHT22;25297;44.758;11.310;2024-03-23T07:21:08;16.20;85.90
39601;DHT22;25297;44.758;11.310;2024-03-23T07:23:33;16.30;85.60
39601;DHT22;25297;44.758;11.310;2024-03-23T07:26:00;16.40;85.60
39601;DHT22;25297;44.758;11.310;2024-03-23T07:28:26;16.40;85.90
39601;DHT22;25297;44.758;11.310;2024-03-23T07:31:20;16.50;85.60
39601;DHT22;25297;44.758;11.310;2024-03-23T07:33:47;16.60;85.30
39601;DHT22;25297;44.758;11.310;2024-03-23T07:36:13;16.60;85.60
39601;DHT22;25297;44.758;11.310;2024-03-23T07:38:48;16.60;85.30
39601;DHT22;25297;44.758;11.310;2024-03-23T07:41:17;16.70;85.50
39601;DHT22;25297;44.758;11.310;2024-03-23T07:43:43;16.80;85.90
39601;DHT22;25297;44.758;11.310;2024-03-23T07:46:09;16.80;86.00
39601;DHT22;25297;44.758;11.310;2024-03-23T07:48:35;17.00;85.90
39601;DHT22;25297;44.758;11.310;2024-03-23T07:53:32;17.10;85.30
39601;DHT22;25297;44.758;11.310;2024-03-23T07:55:59;17.20;84.70
39601;DHT22;25297;44.758;11.310;2024-03-23T07:58:26;17.30;83.90
39601;DHT22;25297;44.758;11.310;2024-03-23T08:00:55;17.40;84.50
39601;DHT22;25297;44.758;11.310;2024-03-23T08:03:22;17.50;83.90
39601;DHT22;25297;44.758;11.310;2024-03-23T08:05:47;17.50;83.40
39601;DHT22;25297;44.758;11.310;2024-03-23T08:08:13;17.60;83.50
39601;DHT22;25297;44.758;11.310;2024-03-23T08:10:52;17.70;83.10
39601;DHT22;25297;44.758;11.310;2024-03-23T08:13:19;17.80;82.20
39601;DHT22;25297;44.758;11.310;2024-03-23T08:15:45;17.90;82.40
39601;DHT22;25297;44.758;11.310;2024-03-23T08:18:12;18.00;82.00
39601;DHT22;25297;44.758;11.310;2024-03-23T08:20:38;18.10;81.30
39601;DHT22;25297;44.758;11.310;2024-03-23T08:23:05;18.20;81.20
39601;DHT22;25297;44.758;11.310;2024-03-23T08:25:31;18.30;79.90
39601;DHT22;25297;44.758;11.310;2024-03-23T08:27:57;18.30;79.70
39601;DHT22;25297;44.758;11.310;2024-03-23T08:30:23;18.40;80.30
39601;DHT22;25297;44.758;11.310;2024-03-23T08:32:49;18.50;81.20
39601;DHT22;25297;44.758;11.310;2024-03-23T08:35:14;18.50;82.10
39601;DHT22;25297;44.758;11.310;2024-03-23T08:37:40;18.60;81.50
39601;DHT22;25297;44.758;11.310;2024-03-23T08:40:06;18.70;81.50
39601;DHT22;25297;44.758;11.310;2024-03-23T08:42:33;18.80;80.50
39601;DHT22;25297;44.758;11.310;2024-03-23T08:44:59;18.90;79.80
39601;DHT22;25297;44.758;11.310;2024-03-23T08:47:25;18.90;78.80
39601;DHT22;25297;44.758;11.310;2024-03-23T08:49:51;19.00;78.40
39601;DHT22;25297;44.758;11.310;2024-03-23T08:52:16;19.00;77.90
39601;DHT22;25297;44.758;11.310;2024-03-23T08:54:42;19.20;76.90
39601;DHT22;25297;44.758;11.310;2024-03-23T08:57:08;19.10;77.60
39601;DHT22;25297;44.758;11.310;2024-03-23T08:59:34;19.00;75.30
39601;DHT22;25297;44.758;11.310;2024-03-23T09:02:00;18.80;74.60
39601;DHT22;25297;44.758;11.310;2024-03-23T09:04:26;18.70;74.30
39601;DHT22;25297;44.758;11.310;2024-03-23T09:06:51;18.80;73.80
39601;DHT22;25297;44.758;11.310;2024-03-23T09:09:17;19.00;73.90
39601;DHT22;25297;44.758;11.310;2024-03-23T09:11:43;19.00;74.40
39601;DHT22;25297;44.758;11.310;2024-03-23T09:14:09;19.20;74.70
39601;DHT22;25297;44.758;11.310;2024-03-23T09:16:34;19.30;73.80
39601;DHT22;25297;44.758;11.310;2024-03-23T09:19:00;19.30;74.20
39601;DHT22;25297;44.758;11.310;2024-03-23T09:21:26;19.50;73.10
39601;DHT22;25297;44.758;11.310;2024-03-23T09:23:52;19.60;73.90
39601;DHT22;25297;44.758;11.310;2024-03-23T09:26:17;19.60;73.20
39601;DHT22;25297;44.758;11.310;2024-03-23T11:57:52;19.10;83.40
39601;DHT22;25297;44.758;11.310;2024-03-23T12:00:21;19.10;82.80
39601;DHT22;25297;44.758;11.310;2024-03-23T12:02:47;19.30;83.60
39601;DHT22;25297;44.758;11.310;2024-03-23T12:05:16;19.40;83.90
39601;DHT22;25297;44.758;11.310;2024-03-23T12:07:42;19.80;78.40
39601;DHT22;25297;44.758;11.310;2024-03-23T12:10:07;19.90;78.50
39601;DHT22;25297;44.758;11.310;2024-03-23T12:12:33;20.10;80.20
39601;DHT22;25297;44.758;11.310;2024-03-23T12:15:04;20.30;75.90
39601;DHT22;25297;44.758;11.310;2024-03-23T12:17:30;20.80;72.60
39601;DHT22;25297;44.758;11.310;2024-03-23T12:19:56;20.70;72.70
39601;DHT22;25297;44.758;11.310;2024-03-23T12:22:22;20.90;69.90
39601;DHT22;25297;44.758;11.310;2024-03-23T12:24:48;21.10;70.00
39601;DHT22;25297;44.758;11.310;2024-03-23T12:27:14;21.30;71.00
39601;DHT22;25297;44.758;11.310;2024-03-23T12:29:42;21.40;68.90
39601;DHT22;25297;44.758;11.310;2024-03-23T12:32:13;21.60;67.20
39601;DHT22;25297;44.758;11.310;2024-03-23T12:34:38;21.70;67.50
39601;DHT22;25297;44.758;11.310;2024-03-23T12:37:04;21.80;67.00
39601;DHT22;25297;44.758;11.310;2024-03-23T12:39:31;21.90;66.60
39601;DHT22;25297;44.758;11.310;2024-03-23T12:41:57;22.00;66.30
39601;DHT22;25297;44.758;11.310;2024-03-23T12:44:22;22.10;68.30
39601;DHT22;25297;44.758;11.310;2024-03-23T12:46:48;22.30;68.60
39601;DHT22;25297;44.758;11.310;2024-03-23T12:49:14;22.30;65.90
39601;DHT22;25297;44.758;11.310;2024-03-23T12:51:48;22.40;66.70
39601;DHT22;25297;44.758;11.310;2024-03-23T12:54:13;22.50;66.40
39601;DHT22;25297;44.758;11.310;2024-03-23T12:56:39;22.50;66.00
39601;DHT22;25297;44.758;11.310;2024-03-23T12:59:04;22.60;66.20
39601;DHT22;25297;44.758;11.310;2024-03-23T13:01:31;22.70;65.40
39601;DHT22;25297;44.758;11.310;2024-03-23T13:03:56;22.60;66.10
39601;DHT22;25297;44.758;11.310;2024-03-23T13:06:24;22.70;65.70
39601;DHT22;25297;44.758;11.310;2024-03-23T13:08:49;22.80;65.80
39601;DHT22;25297;44.758;11.310;2024-03-23T13:11:15;22.90;66.10
39601;DHT22;25297;44.758;11.310;2024-03-23T13:13:41;23.00;65.20
39601;DHT22;25297;44.758;11.310;2024-03-23T13:16:07;23.00;64.10
39601;DHT22;25297;44.758;11.310;2024-03-23T13:18:33;23.00;64.10
39601;DHT22;25297;44.758;11.310;2024-03-23T13:20:59;23.00;63.60
39601;DHT22;25297;44.758;11.310;2024-03-23T13:23:25;23.10;63.80
39601;DHT22;25297;44.758;11.310;2024-03-23T13:25:55;23.10;63.10
39601;DHT22;25297;44.758;11.310;2024-03-23T13:28:21;23.20;63.40
39601;DHT22;25297;44.758;11.310;2024-03-23T13:30:54;23.20;62.80
39601;DHT22;25297;44.758;11.310;2024-03-23T13:33:20;23.20;64.20
39601;DHT22;25297;44.758;11.310;2024-03-23T13:35:55;23.30;63.60
39601;DHT22;25297;44.758;11.310;2024-03-23T13:38:25;23.30;62.80
39601;DHT22;25297;44.758;11.310;2024-03-23T13:40:58;23.30;64.40
39601;DHT22;25297;44.758;11.310;2024-03-23T13:43:25;23.40;68.10
39601;DHT22;25297;44.758;11.310;2024-03-23T13:45:58;23.30;66.60
39601;DHT22;25297;44.758;11.310;2024-03-23T13:48:27;23.30;65.20
39601;DHT22;25297;44.758;11.310;2024-03-23T13:51:02;23.30;68.30
39601;DHT22;25297;44.758;11.310;2024-03-23T13:53:28;23.30;66.50
39601;DHT22;25297;44.758;11.310;2024-03-23T13:55:54;23.30;65.10
39601;DHT22;25297;44.758;11.310;2024-03-23T13:58:20;23.30;68.30
39601;DHT22;25297;44.758;11.310;2024-03-23T14:00:45;23.30;65.80
39601;DHT22;25297;44.758;11.310;2024-03-23T14:03:12;23.30;62.90
39601;DHT22;25297;44.758;11.310;2024-03-23T14:05:38;23.30;63.50
39601;DHT22;25297;44.758;11.310;2024-03-23T14:08:07;23.30;63.80
39601;DHT22;25297;44.758;11.310;2024-03-23T14:10:33;23.30;63.30
39601;DHT22;25297;44.758;11.310;2024-03-23T14:12:59;23.40;63.50
39601;DHT22;25297;44.758;11.310;2024-03-23T14:15:28;23.40;64.20
39601;DHT22;25297;44.758;11.310;2024-03-23T14:17:55;23.40;64.20
39601;DHT22;25297;44.758;11.310;2024-03-23T14:20:21;23.40;62.70
39601;DHT22;25297;44.758;11.310;2024-03-23T14:22:50;23.40;63.90
39601;DHT22;25297;44.758;11.310;2024-03-23T14:25:16;23.40;66.30
39601;DHT22;25297;44.758;11.310;2024-03-23T14:27:46;23.40;68.20
39601;DHT22;25297;44.758;11.310;2024-03-23T14:30:12;23.40;67.90
39601;DHT22;25297;44.758;11.310;2024-03-23T14:32:38;23.40;67.30
39601;DHT22;25297;44.758;11.310;2024-03-23T14:35:04;23.30;66.60
39601;DHT22;25297;44.758;11.310;2024-03-23T14:37:30;23.30;68.00
39601;DHT22;25297;44.758;11.310;2024-03-23T14:39:56;23.20;68.60
39601;DHT22;25297;44.758;11.310;2024-03-23T14:42:22;23.20;68.10
39601;DHT22;25297;44.758;11.310;2024-03-23T14:44:47;23.20;68.70
39601;DHT22;25297;44.758;11.310;2024-03-23T14:47:13;23.20;68.10
39601;DHT22;25297;44.758;11.310;2024-03-23T14:49:39;23.20;67.50
39601;DHT22;25297;44.758;11.310;2024-03-23T14:52:04;23.20;68.30
39601;DHT22;25297;44.758;11.310;2024-03-23T14:54:30;23.10;66.80
39601;DHT22;25297;44.758;11.310;2024-03-23T14:56:56;23.10;67.80
39601;DHT22;25297;44.758;11.310;2024-03-23T14:59:24;23.10;67.80
39601;DHT22;25297;44.758;11.310;2024-03-23T15:01:49;23.10;68.70
39601;DHT22;25297;44.758;11.310;2024-03-23T15:04:15;23.10;68.90
39601;DHT22;25297;44.758;11.310;2024-03-23T15:06:41;23.10;69.10
39601;DHT22;25297;44.758;11.310;2024-03-23T15:09:07;23.00;69.20
39601;DHT22;25297;44.758;11.310;2024-03-23T15:11:36;23.10;68.70
39601;DHT22;25297;44.758;11.310;2024-03-23T15:14:02;23.10;69.10
39601;DHT22;25297;44.758;11.310;2024-03-23T15:16:28;23.10;69.30
39601;DHT22;25297;44.758;11.310;2024-03-23T15:18:53;23.10;68.60
39601;DHT22;25297;44.758;11.310;2024-03-23T15:21:19;23.10;67.70
39601;DHT22;25297;44.758;11.310;2024-03-23T15:23:47;23.10;66.60
39601;DHT22;25297;44.758;11.310;2024-03-23T15:26:13;23.10;66.30
39601;DHT22;25297;44.758;11.310;2024-03-23T15:28:39;23.10;66.50
39601;DHT22;25297;44.758;11.310;2024-03-23T15:31:35;23.20;65.70
39601;DHT22;25297;44.758;11.310;2024-03-23T15:34:01;23.20;67.40
39601;DHT22;25297;44.758;11.310;2024-03-23T15:36:26;23.30;65.40
39601;DHT22;25297;44.758;11.310;2024-03-23T15:38:52;23.30;65.20
39601;DHT22;25297;44.758;11.310;2024-03-23T15:41:20;23.30;65.40
39601;DHT22;25297;44.758;11.310;2024-03-23T15:43:46;23.40;65.20
39601;DHT22;25297;44.758;11.310;2024-03-23T15:46:11;23.40;65.50
39601;DHT22;25297;44.758;11.310;2024-03-23T15:48:38;23.40;65.30
39601;DHT22;25297;44.758;11.310;2024-03-23T15:51:04;23.50;64.60
39601;DHT22;25297;44.758;11.310;2024-03-23T15:53:30;23.50;64.60
39601;DHT22;25297;44.758;11.310;2024-03-23T15:56:00;23.50;64.90
39601;DHT22;25297;44.758;11.310;2024-03-23T15:58:27;23.60;65.70
39601;DHT22;25297;44.758;11.310;2024-03-23T16:01:03;23.60;66.30
39601;DHT22;25297;44.758;11.310;2024-03-23T16:03:30;23.70;66.60
39601;DHT22;25297;44.758;11.310;2024-03-23T16:05:58;23.70;66.00
39601;DHT22;25297;44.758;11.310;2024-03-23T16:08:24;23.70;66.60
39601;DHT22;25297;44.758;11.310;2024-03-23T16:10:51;23.70;66.00
39601;DHT22;25297;44.758;11.310;2024-03-23T16:13:17;23.80;65.90
39601;DHT22;25297;44.758;11.310;2024-03-23T16:15:43;23.80;64.50
39601;DHT22;25297;44.758;11.310;2024-03-23T16:18:09;23.80;64.20
39601;DHT22;25297;44.758;11.310;2024-03-23T16:20:35;23.80;63.60
39601;DHT22;25297;44.758;11.310;2024-03-23T16:23:02;23.80;63.70
39601;DHT22;25297;44.758;11.310;2024-03-23T16:25:27;23.70;64.00
39601;DHT22;25297;44.758;11.310;2024-03-23T16:27:53;23.70;64.00
39601;DHT22;25297;44.758;11.310;2024-03-23T16:30:19;23.70;64.00
39601;DHT22;25297;44.758;11.310;2024-03-23T16:32:46;23.70;63.90
39601;DHT22;25297;44.758;11.310;2024-03-23T16:35:12;23.60;64.10
39601;DHT22;25297;44.758;11.310;2024-03-23T16:37:38;23.60;64.10
39601;DHT22;25297;44.758;11.310;2024-03-23T16:40:04;23.60;64.60
39601;DHT22;25297;44.758;11.310;2024-03-23T16:42:32;23.50;64.60
39601;DHT22;25297;44.758;11.310;2024-03-23T16:44:57;23.50;64.80
39601;DHT22;25297;44.758;11.310;2024-03-23T16:47:23;23.50;64.90
39601;DHT22;25297;44.758;11.310;2024-03-23T16:49:49;23.40;64.70
39601;DHT22;25297;44.758;11.310;2024-03-23T16:52:15;23.40;65.00
39601;DHT22;25297;44.758;11.310;2024-03-23T16:54:41;23.40;65.40
39601;DHT22;25297;44.758;11.310;2024-03-23T16:57:07;23.30;65.80
39601;DHT22;25297;44.758;11.310;2024-03-23T16:59:33;23.30;66.00
39601;DHT22;25297;44.758;11.310;2024-03-23T17:01:58;23.20;66.10
39601;DHT22;25297;44.758;11.310;2024-03-23T17:04:24;23.10;66.20
39601;DHT22;25297;44.758;11.310;2024-03-23T17:06:50;23.10;66.10
39601;DHT22;25297;44.758;11.310;2024-03-23T17:09:15;23.00;66.10
39601;DHT22;25297;44.758;11.310;2024-03-23T17:11:42;22.90;66.20
39601;DHT22;25297;44.758;11.310;2024-03-23T17:14:09;22.80;66.50
39601;DHT22;25297;44.758;11.310;2024-03-23T17:16:35;22.70;66.80
39601;DHT22;25297;44.758;11.310;2024-03-23T17:19:01;22.60;66.30
39601;DHT22;25297;44.758;11.310;2024-03-23T17:21:27;22.60;67.00
39601;DHT22;25297;44.758;11.310;2024-03-23T17:23:53;22.50;67.10
39601;DHT22;25297;44.758;11.310;2024-03-23T17:26:25;22.40;67.40
39601;DHT22;25297;44.758;11.310;2024-03-23T17:28:51;22.40;68.20
39601;DHT22;25297;44.758;11.310;2024-03-23T17:31:21;22.30;68.50
39601;DHT22;25297;44.758;11.310;2024-03-23T17:33:50;22.20;68.30
39601;DHT22;25297;44.758;11.310;2024-03-23T17:36:20;22.20;68.70
39601;DHT22;25297;44.758;11.310;2024-03-23T17:38:56;22.10;68.70
39601;DHT22;25297;44.758;11.310;2024-03-23T17:41:23;22.00;68.20
39601;DHT22;25297;44.758;11.310;2024-03-23T17:43:51;22.00;68.10
39601;DHT22;25297;44.758;11.310;2024-03-23T17:46:16;21.90;68.00
39601;DHT22;25297;44.758;11.310;2024-03-23T17:48:42;21.80;68.30
39601;DHT22;25297;44.758;11.310;2024-03-23T17:51:08;21.70;68.40
39601;DHT22;25297;44.758;11.310;2024-03-23T17:53:40;21.70;68.30
39601;DHT22;25297;44.758;11.310;2024-03-23T17:56:06;21.60;68.40
39601;DHT22;25297;44.758;11.310;2024-03-23T17:58:32;21.50;68.40
39601;DHT22;25297;44.758;11.310;2024-03-23T18:01:05;21.50;68.40
39601;DHT22;25297;44.758;11.310;2024-03-23T18:03:30;21.40;68.30
39601;DHT22;25297;44.758;11.310;2024-03-23T18:05:56;21.40;68.40
39601;DHT22;25297;44.758;11.310;2024-03-23T18:08:22;21.30;68.30
39601;DHT22;25297;44.758;11.310;2024-03-23T18:10:47;21.30;68.60
39601;DHT22;25297;44.758;11.310;2024-03-23T18:13:13;21.20;68.30
39601;DHT22;25297;44.758;11.310;2024-03-23T18:15:38;21.20;68.20
39601;DHT22;25297;44.758;11.310;2024-03-23T18:18:04;21.10;68.40
39601;DHT22;25297;44.758;11.310;2024-03-23T18:20:30;21.00;68.40
39601;DHT22;25297;44.758;11.310;2024-03-23T18:22:55;21.00;68.20
39601;DHT22;25297;44.758;11.310;2024-03-23T18:25:21;21.00;68.10
39601;DHT22;25297;44.758;11.310;2024-03-23T18:27:47;20.90;68.00
39601;DHT22;25297;44.758;11.310;2024-03-23T18:30:12;20.90;68.30
39601;DHT22;25297;44.758;11.310;2024-03-23T18:32:38;20.80;68.10
39601;DHT22;25297;44.758;11.310;2024-03-23T18:35:04;20.80;68.30
39601;DHT22;25297;44.758;11.310;2024-03-23T18:37:30;20.80;68.10